Relevés horaires Beauvechain (Belgique)


Relevés horaires à Beauvechain - Vendredi 19 Avr. 2019
Heure UTC1 Température [°C] Vent [km/h] Hum. [%] Pres.4 [hPa] Visi. [Km] Nébu. [octa] Préc.5 [mm] Cond.
2m. Res. Ros. Dir.2 Vit. Moy. Raf.3
23:00 16.0 16.0 2.0 NNO 1.9 -- 5.6 39 1028.2(0.7/3h) 20 -- -- --
22:00 16.0 16.0 2.7 ENE 3.7 -- 5.6 41 1028.2(1.0/3h) 20 -- -- --
21:00 17.7 17.7 2.6 ENE 3.7 -- 7.4 36 1027.7(0.9/3h) 20 -- -- --
20:00 17.7 17.7 3.3 NE 3.7 -- 5.6 38 1027.5(1.0/3h) 20 -- -- --
19:00 17.9 17.9 4.0 NNE 3.7 -- 7.4 40 1027(0.7/3h) 20 -- -- --
18:00 20.0 20.0 4.9 ENE 5.6 -- 11.1 37 1026.7(0.4/3h) 20 -- -- --
17:00 21.8 21.8 5.9 ENE 5.6 -- 9.3 36 1026.2(0.0/3h) 20 -- -- --
16:00 22.5 22.5 6.9 NE 5.6 -- 11.1 37 1026(-0.4/3h) 20 -- -- --
15:00 22.9 22.9 7.0 NE 5.6 -- 11.1 36 1026(-0.4/3h) 19 -- -- --
14:00 22.7 22.7 5.8 ENE 7.4 -- 11.1 33 1026.2(-0.5/3h) 20 -- -- --
13:00 22.2 22.2 5.5 ESE 3.7 -- 11.1 34 1026.4(-0.5/3h) 17 -- -- --
12:00 21.9 21.9 6.5 ENE 5.6 -- 11.1 37 1026.5(-0.5/3h) 20 -- -- --
11:00 20.3 20.3 6.5 ENE 7.4 -- 11.1 41 1026.9(-0.1/3h) 19 -- -- --
10:00 18.9 18.9 6.7 NE 5.6 -- 9.3 45 1027(0.4/3h) 20 1/8 -- --
09:00 16.1 16.1 6.3 ENE 5.6 -- 9.3 52 1027.4(0.9/3h) 20 1/8 -- --
08:00 14.4 14.4 5.4 ENE 5.6 -- 9.3 55 1027.2(1.1/3h) 20 1/8 -- --
07:00 12.1 12.1 4.5 ENE 3.7 -- 9.3 60 1027(1.0/3h) 20 1/8 -- --
06:00 11.3 11.1 3.4 ENE 5.6 -- 7.4 58 1026.7(0.9/3h) 20 1/8 -- --
05:00 10.5 10.2 2.8 ENE 5.6 -- 7.4 59 1026.2(0.7/3h) 20 1/8 -- --
04:00 11.3 11.1 2.8 E 5.6 -- 7.4 56 1025.9(0.6/3h) 20 -- -- --
03:00 11.6 11.4 3.0 E 5.6 -- 7.4 55 1025.7(0.4/3h) 20 -- -- --
02:00 11.6 11.4 3.2 E 5.6 -- 7.4 56 1025.5(0.3/3h) 20 -- -- --
01:00 12.3 12.2 3.4 E 5.6 -- 7.4 54 1025.2(0.4/3h) 20 -- -- --
00:00 11.3 11.3 3.6 ENE 3.7 -- 9.3 59 1025.4(0.7/3h) 20 -- -- --

1 Coordinated Universal Time. Actuellement il est 07:00 locale et 06:00 UTC.

2 Le vent souffle depuis la direction indiquée vers la direction oposée.

3 Les rafales max. sont disponible 40 min après l'heure du relevé.

4 Pour les stations d'altitude (plus de 600m) le géopotentiel du niveau le plus proche de la pression obligatoire est indiqué.

5 Les stations disposant d'un diffuseur peuvent indiquer "trace". Cela signifie que des précipitations ont touchés le sol mais que la quantité est inférieure à 0.1 mm.

Récapitulatif de la journée
Température [°C] Vent [km/h] Ensoleillement4 [h] Precipitations totale5 [mm] Pression [Hpa]
Min1 Max.2 Moy.3 Max. Min Max.
9.8 23.2 0 11.1 0 h 0 min 0 1025.2 1028.2

1 Température minimale relevée entre 18:00 UTC la veille et 18:00 UTC le jour donné.

2 Température maximale relevée entre 06:00 UTC le jour donné et 06:00 UTC le lendemain.

3 Vent moyen de la journée basé sur les relevés horaires.

4 Ensoleillement en heures relevé entre 06:00 UTC la veille et 06:00 UTC le jour donné.

5 Précipitations totales tombées entre 06:00 UTC la jour donné et 06:00 UTC le lendemain.

Graphiques horaires